sensor_id;sensor_type;location;lat;lon;timestamp;temperature;humidity
25320;DHT22;13256;49.012;8.610;2022-12-07T00:02:04;4.70;99.90
25320;DHT22;13256;49.012;8.610;2022-12-07T00:04:30;4.60;99.90
25320;DHT22;13256;49.012;8.610;2022-12-07T00:06:57;4.60;99.90
25320;DHT22;13256;49.012;8.610;2022-12-07T00:09:27;4.60;99.90
25320;DHT22;13256;49.012;8.610;2022-12-07T00:11:59;4.60;99.90
25320;DHT22;13256;49.012;8.610;2022-12-07T00:14:30;4.50;99.90
25320;DHT22;13256;49.012;8.610;2022-12-07T00:16:58;4.50;99.90
25320;DHT22;13256;49.012;8.610;2022-12-07T00:19:28;4.50;99.90
25320;DHT22;13256;49.012;8.610;2022-12-07T00:21:57;4.50;99.90
25320;DHT22;13256;49.012;8.610;2022-12-07T00:24:26;4.50;99.90
25320;DHT22;13256;49.012;8.610;2022-12-07T00:26:53;4.40;99.90
25320;DHT22;13256;49.012;8.610;2022-12-07T00:29:23;4.40;99.90
25320;DHT22;13256;49.012;8.610;2022-12-07T00:31:54;4.40;99.90
25320;DHT22;13256;49.012;8.610;2022-12-07T00:34:22;4.40;99.90
25320;DHT22;13256;49.012;8.610;2022-12-07T00:36:49;4.40;99.90
25320;DHT22;13256;49.012;8.610;2022-12-07T00:39:18;4.40;99.90
25320;DHT22;13256;49.012;8.610;2022-12-07T00:41:45;4.50;99.90
25320;DHT22;13256;49.012;8.610;2022-12-07T00:44:14;4.40;99.90
25320;DHT22;13256;49.012;8.610;2022-12-07T00:46:43;4.40;99.90
25320;DHT22;13256;49.012;8.610;2022-12-07T00:49:12;4.50;99.90
25320;DHT22;13256;49.012;8.610;2022-12-07T00:51:40;4.40;99.90
25320;DHT22;13256;49.012;8.610;2022-12-07T00:54:09;4.40;99.90
25320;DHT22;13256;49.012;8.610;2022-12-07T00:56:36;4.50;99.90
25320;DHT22;13256;49.012;8.610;2022-12-07T00:59:03;4.40;99.90
25320;DHT22;13256;49.012;8.610;2022-12-07T01:01:37;4.40;99.90
25320;DHT22;13256;49.012;8.610;2022-12-07T01:04:10;4.40;99.90
25320;DHT22;13256;49.012;8.610;2022-12-07T01:06:40;4.40;99.90
25320;DHT22;13256;49.012;8.610;2022-12-07T01:09:06;4.40;99.90
25320;DHT22;13256;49.012;8.610;2022-12-07T01:11:33;4.40;99.90
25320;DHT22;13256;49.012;8.610;2022-12-07T01:14:01;4.30;99.90
25320;DHT22;13256;49.012;8.610;2022-12-07T01:16:30;4.30;99.90
25320;DHT22;13256;49.012;8.610;2022-12-07T01:19:00;4.20;99.90
25320;DHT22;13256;49.012;8.610;2022-12-07T01:21:38;4.20;99.90
25320;DHT22;13256;49.012;8.610;2022-12-07T01:24:30;4.20;99.90
25320;DHT22;13256;49.012;8.610;2022-12-07T01:26:59;4.20;99.90
25320;DHT22;13256;49.012;8.610;2022-12-07T01:29:28;4.10;99.90
25320;DHT22;13256;49.012;8.610;2022-12-07T01:31:57;4.10;99.90
25320;DHT22;13256;49.012;8.610;2022-12-07T01:34:24;4.10;99.90
25320;DHT22;13256;49.012;8.610;2022-12-07T01:36:56;4.20;99.90
25320;DHT22;13256;49.012;8.610;2022-12-07T01:39:23;4.10;99.90
25320;DHT22;13256;49.012;8.610;2022-12-07T01:41:50;4.20;99.90
25320;DHT22;13256;49.012;8.610;2022-12-07T01:44:23;4.20;99.90
25320;DHT22;13256;49.012;8.610;2022-12-07T01:46:52;4.20;99.90
25320;DHT22;13256;49.012;8.610;2022-12-07T01:52:17;4.20;99.90
25320;DHT22;13256;49.012;8.610;2022-12-07T01:54:47;4.20;99.90
25320;DHT22;13256;49.012;8.610;2022-12-07T01:57:15;4.10;99.90
25320;DHT22;13256;49.012;8.610;2022-12-07T01:59:48;4.10;99.90
25320;DHT22;13256;49.012;8.610;2022-12-07T02:02:23;4.10;99.90
25320;DHT22;13256;49.012;8.610;2022-12-07T02:04:52;4.10;99.90
25320;DHT22;13256;49.012;8.610;2022-12-07T02:07:23;4.10;99.90
25320;DHT22;13256;49.012;8.610;2022-12-07T02:09:50;4.10;99.90
25320;DHT22;13256;49.012;8.610;2022-12-07T02:12:17;4.10;99.90
25320;DHT22;13256;49.012;8.610;2022-12-07T02:14:43;4.10;99.90
25320;DHT22;13256;49.012;8.610;2022-12-07T02:17:21;4.00;99.90
25320;DHT22;13256;49.012;8.610;2022-12-07T02:28:21;3.90;99.90
25320;DHT22;13256;49.012;8.610;2022-12-07T02:30:55;3.90;99.90
25320;DHT22;13256;49.012;8.610;2022-12-07T02:33:29;4.00;99.90
25320;DHT22;13256;49.012;8.610;2022-12-07T02:35:59;3.90;99.90
25320;DHT22;13256;49.012;8.610;2022-12-07T02:38:50;3.90;99.90
25320;DHT22;13256;49.012;8.610;2022-12-07T02:41:24;4.00;99.90
25320;DHT22;13256;49.012;8.610;2022-12-07T02:44:15;3.90;99.90
25320;DHT22;13256;49.012;8.610;2022-12-07T02:47:01;3.90;99.90
25320;DHT22;13256;49.012;8.610;2022-12-07T02:49:29;3.90;99.90
25320;DHT22;13256;49.012;8.610;2022-12-07T02:51:57;4.00;99.90
25320;DHT22;13256;49.012;8.610;2022-12-07T02:54:31;4.00;99.90
25320;DHT22;13256;49.012;8.610;2022-12-07T03:00:19;3.90;99.90
25320;DHT22;13256;49.012;8.610;2022-12-07T03:03:00;4.00;99.90
25320;DHT22;13256;49.012;8.610;2022-12-07T03:14:11;3.90;99.90
25320;DHT22;13256;49.012;8.610;2022-12-07T03:16:44;3.90;99.90
25320;DHT22;13256;49.012;8.610;2022-12-07T03:19:15;3.90;99.90
25320;DHT22;13256;49.012;8.610;2022-12-07T03:24:33;3.80;99.90
25320;DHT22;13256;49.012;8.610;2022-12-07T03:27:08;3.80;99.90
25320;DHT22;13256;49.012;8.610;2022-12-07T03:29:43;3.80;99.90
25320;DHT22;13256;49.012;8.610;2022-12-07T03:35:52;3.80;99.90
25320;DHT22;13256;49.012;8.610;2022-12-07T03:38:28;3.80;99.90
25320;DHT22;13256;49.012;8.610;2022-12-07T03:41:06;3.80;99.90
25320;DHT22;13256;49.012;8.610;2022-12-07T03:43:38;3.80;99.90
25320;DHT22;13256;49.012;8.610;2022-12-07T03:46:37;3.90;99.90
25320;DHT22;13256;49.012;8.610;2022-12-07T03:49:22;3.90;99.90
25320;DHT22;13256;49.012;8.610;2022-12-07T03:54:57;3.90;99.90
25320;DHT22;13256;49.012;8.610;2022-12-07T03:57:26;3.90;99.90
25320;DHT22;13256;49.012;8.610;2022-12-07T03:59:55;3.90;99.90
25320;DHT22;13256;49.012;8.610;2022-12-07T04:02:25;3.90;99.90
25320;DHT22;13256;49.012;8.610;2022-12-07T04:04:54;3.80;99.90
25320;DHT22;13256;49.012;8.610;2022-12-07T04:07:21;3.80;99.90
25320;DHT22;13256;49.012;8.610;2022-12-07T04:09:49;3.90;99.90
25320;DHT22;13256;49.012;8.610;2022-12-07T04:12:22;3.90;99.90
25320;DHT22;13256;49.012;8.610;2022-12-07T04:14:54;3.90;99.90
25320;DHT22;13256;49.012;8.610;2022-12-07T04:17:25;3.80;99.90
25320;DHT22;13256;49.012;8.610;2022-12-07T04:19:55;3.80;99.90
25320;DHT22;13256;49.012;8.610;2022-12-07T04:22:22;3.80;99.90
25320;DHT22;13256;49.012;8.610;2022-12-07T04:24:48;3.80;99.90
25320;DHT22;13256;49.012;8.610;2022-12-07T04:27:20;3.80;99.90
25320;DHT22;13256;49.012;8.610;2022-12-07T04:29:50;3.80;99.90
25320;DHT22;13256;49.012;8.610;2022-12-07T04:32:19;3.80;99.90
25320;DHT22;13256;49.012;8.610;2022-12-07T04:34:46;3.80;99.90
25320;DHT22;13256;49.012;8.610;2022-12-07T04:37:17;3.80;99.90
25320;DHT22;13256;49.012;8.610;2022-12-07T04:39:46;3.80;99.90
25320;DHT22;13256;49.012;8.610;2022-12-07T04:42:22;3.80;99.90
25320;DHT22;13256;49.012;8.610;2022-12-07T04:44:51;3.80;99.90
25320;DHT22;13256;49.012;8.610;2022-12-07T04:47:18;3.70;99.90
25320;DHT22;13256;49.012;8.610;2022-12-07T04:49:47;3.80;99.90
25320;DHT22;13256;49.012;8.610;2022-12-07T04:52:13;3.70;99.90
25320;DHT22;13256;49.012;8.610;2022-12-07T04:55:12;3.70;99.90
25320;DHT22;13256;49.012;8.610;2022-12-07T04:57:42;3.70;99.90
25320;DHT22;13256;49.012;8.610;2022-12-07T05:00:11;3.70;99.90
25320;DHT22;13256;49.012;8.610;2022-12-07T05:02:38;3.70;99.90
25320;DHT22;13256;49.012;8.610;2022-12-07T05:05:05;3.70;99.90
25320;DHT22;13256;49.012;8.610;2022-12-07T05:07:35;3.80;99.90
25320;DHT22;13256;49.012;8.610;2022-12-07T05:10:07;3.70;99.90
25320;DHT22;13256;49.012;8.610;2022-12-07T05:12:38;3.80;99.90
25320;DHT22;13256;49.012;8.610;2022-12-07T05:15:07;3.70;99.90
25320;DHT22;13256;49.012;8.610;2022-12-07T05:17:34;3.70;99.90
25320;DHT22;13256;49.012;8.610;2022-12-07T05:20:02;3.70;99.90
25320;DHT22;13256;49.012;8.610;2022-12-07T05:22:30;3.70;99.90
25320;DHT22;13256;49.012;8.610;2022-12-07T05:24:57;3.70;99.90
25320;DHT22;13256;49.012;8.610;2022-12-07T05:27:28;3.70;99.90
25320;DHT22;13256;49.012;8.610;2022-12-07T05:30:01;3.70;99.90
25320;DHT22;13256;49.012;8.610;2022-12-07T05:32:55;3.70;99.90
25320;DHT22;13256;49.012;8.610;2022-12-07T05:35:31;3.70;99.90
25320;DHT22;13256;49.012;8.610;2022-12-07T05:37:59;3.70;99.90
25320;DHT22;13256;49.012;8.610;2022-12-07T05:40:27;3.70;99.90
25320;DHT22;13256;49.012;8.610;2022-12-07T05:43:25;3.70;99.90
25320;DHT22;13256;49.012;8.610;2022-12-07T05:45:52;3.70;99.90
25320;DHT22;13256;49.012;8.610;2022-12-07T05:48:22;3.70;99.90
25320;DHT22;13256;49.012;8.610;2022-12-07T05:51:01;3.70;99.90
25320;DHT22;13256;49.012;8.610;2022-12-07T05:53:36;3.70;99.90
25320;DHT22;13256;49.012;8.610;2022-12-07T05:56:05;3.70;99.90
25320;DHT22;13256;49.012;8.610;2022-12-07T05:58:32;3.70;99.90
25320;DHT22;13256;49.012;8.610;2022-12-07T06:01:17;3.70;99.90
25320;DHT22;13256;49.012;8.610;2022-12-07T06:03:45;3.70;99.90
25320;DHT22;13256;49.012;8.610;2022-12-07T06:06:19;3.70;99.90
25320;DHT22;13256;49.012;8.610;2022-12-07T06:08:52;3.70;99.90
25320;DHT22;13256;49.012;8.610;2022-12-07T06:11:21;3.70;99.90
25320;DHT22;13256;49.012;8.610;2022-12-07T06:14:06;3.70;99.90
25320;DHT22;13256;49.012;8.610;2022-12-07T06:16:34;3.70;99.90
25320;DHT22;13256;49.012;8.610;2022-12-07T06:19:01;3.70;99.90
25320;DHT22;13256;49.012;8.610;2022-12-07T06:21:28;3.70;99.90
25320;DHT22;13256;49.012;8.610;2022-12-07T06:23:55;3.70;99.90
25320;DHT22;13256;49.012;8.610;2022-12-07T06:26:25;3.70;99.90
25320;DHT22;13256;49.012;8.610;2022-12-07T06:28:53;3.70;99.90
25320;DHT22;13256;49.012;8.610;2022-12-07T06:31:21;3.70;99.90
25320;DHT22;13256;49.012;8.610;2022-12-07T06:33:58;3.70;99.90
25320;DHT22;13256;49.012;8.610;2022-12-07T06:36:27;3.70;99.90
25320;DHT22;13256;49.012;8.610;2022-12-07T06:38:57;3.70;99.90
25320;DHT22;13256;49.012;8.610;2022-12-07T06:41:24;3.70;99.90
25320;DHT22;13256;49.012;8.610;2022-12-07T06:43:54;3.70;99.90
25320;DHT22;13256;49.012;8.610;2022-12-07T06:46:25;3.70;99.90
25320;DHT22;13256;49.012;8.610;2022-12-07T06:48:54;3.60;99.90
25320;DHT22;13256;49.012;8.610;2022-12-07T06:51:32;3.70;99.90
25320;DHT22;13256;49.012;8.610;2022-12-07T06:54:04;3.70;99.90
25320;DHT22;13256;49.012;8.610;2022-12-07T06:56:31;3.70;99.90
25320;DHT22;13256;49.012;8.610;2022-12-07T06:59:03;3.70;99.90
25320;DHT22;13256;49.012;8.610;2022-12-07T07:01:32;3.70;99.90
25320;DHT22;13256;49.012;8.610;2022-12-07T07:04:04;3.70;99.90
25320;DHT22;13256;49.012;8.610;2022-12-07T07:06:38;3.70;99.90
25320;DHT22;13256;49.012;8.610;2022-12-07T07:09:09;3.70;99.90
25320;DHT22;13256;49.012;8.610;2022-12-07T07:11:37;3.70;99.90
25320;DHT22;13256;49.012;8.610;2022-12-07T07:14:07;3.70;99.90
25320;DHT22;13256;49.012;8.610;2022-12-07T07:16:42;3.70;99.90
25320;DHT22;13256;49.012;8.610;2022-12-07T07:19:09;3.70;99.90
25320;DHT22;13256;49.012;8.610;2022-12-07T07:21:38;3.70;99.90
25320;DHT22;13256;49.012;8.610;2022-12-07T07:24:05;3.70;99.90
25320;DHT22;13256;49.012;8.610;2022-12-07T07:26:33;3.70;99.90
25320;DHT22;13256;49.012;8.610;2022-12-07T07:29:03;3.70;99.90
25320;DHT22;13256;49.012;8.610;2022-12-07T07:31:35;3.70;99.90
25320;DHT22;13256;49.012;8.610;2022-12-07T07:34:02;3.70;99.90
25320;DHT22;13256;49.012;8.610;2022-12-07T07:36:29;3.70;99.90
25320;DHT22;13256;49.012;8.610;2022-12-07T07:38:57;3.80;99.90
25320;DHT22;13256;49.012;8.610;2022-12-07T07:41:31;3.80;99.90
25320;DHT22;13256;49.012;8.610;2022-12-07T07:44:02;3.80;99.90
25320;DHT22;13256;49.012;8.610;2022-12-07T07:46:31;3.80;99.90
25320;DHT22;13256;49.012;8.610;2022-12-07T07:49:24;3.80;99.90
25320;DHT22;13256;49.012;8.610;2022-12-07T07:51:53;3.80;99.90
25320;DHT22;13256;49.012;8.610;2022-12-07T07:54:23;3.90;99.90
25320;DHT22;13256;49.012;8.610;2022-12-07T07:56:50;3.90;99.90
25320;DHT22;13256;49.012;8.610;2022-12-07T07:59:22;3.90;99.90
25320;DHT22;13256;49.012;8.610;2022-12-07T08:01:49;3.90;99.90
25320;DHT22;13256;49.012;8.610;2022-12-07T08:04:21;3.90;99.90
25320;DHT22;13256;49.012;8.610;2022-12-07T08:06:51;4.00;99.90
25320;DHT22;13256;49.012;8.610;2022-12-07T08:09:23;4.00;99.90
25320;DHT22;13256;49.012;8.610;2022-12-07T08:11:49;4.00;99.90
25320;DHT22;13256;49.012;8.610;2022-12-07T08:14:19;4.10;99.90
25320;DHT22;13256;49.012;8.610;2022-12-07T08:16:49;4.00;99.90
25320;DHT22;13256;49.012;8.610;2022-12-07T08:19:23;4.00;99.90
25320;DHT22;13256;49.012;8.610;2022-12-07T08:21:52;4.00;99.90
25320;DHT22;13256;49.012;8.610;2022-12-07T08:24:19;4.00;99.90
25320;DHT22;13256;49.012;8.610;2022-12-07T08:26:48;4.00;99.90
25320;DHT22;13256;49.012;8.610;2022-12-07T08:29:20;4.00;99.90
25320;DHT22;13256;49.012;8.610;2022-12-07T08:31:50;4.00;99.90
25320;DHT22;13256;49.012;8.610;2022-12-07T08:34:18;4.00;99.90
25320;DHT22;13256;49.012;8.610;2022-12-07T08:36:46;4.00;99.90
25320;DHT22;13256;49.012;8.610;2022-12-07T08:39:24;4.00;99.90
25320;DHT22;13256;49.012;8.610;2022-12-07T08:42:00;4.00;99.90
25320;DHT22;13256;49.012;8.610;2022-12-07T08:44:27;4.00;99.90
25320;DHT22;13256;49.012;8.610;2022-12-07T08:47:02;4.00;99.90
25320;DHT22;13256;49.012;8.610;2022-12-07T08:49:43;4.00;99.90
25320;DHT22;13256;49.012;8.610;2022-12-07T08:52:14;4.00;99.90
25320;DHT22;13256;49.012;8.610;2022-12-07T08:54:44;4.00;99.90
25320;DHT22;13256;49.012;8.610;2022-12-07T08:57:11;4.00;99.90
25320;DHT22;13256;49.012;8.610;2022-12-07T08:59:43;4.10;99.90
25320;DHT22;13256;49.012;8.610;2022-12-07T09:02:17;4.00;99.90
25320;DHT22;13256;49.012;8.610;2022-12-07T09:04:50;4.10;99.90
25320;DHT22;13256;49.012;8.610;2022-12-07T09:07:17;4.10;99.90
25320;DHT22;13256;49.012;8.610;2022-12-07T09:09:53;4.10;99.90
25320;DHT22;13256;49.012;8.610;2022-12-07T09:12:20;4.10;99.90
25320;DHT22;13256;49.012;8.610;2022-12-07T09:14:51;4.20;99.90
25320;DHT22;13256;49.012;8.610;2022-12-07T09:17:20;4.20;99.90
25320;DHT22;13256;49.012;8.610;2022-12-07T09:19:50;4.30;99.90
25320;DHT22;13256;49.012;8.610;2022-12-07T09:22:21;4.30;99.90
25320;DHT22;13256;49.012;8.610;2022-12-07T09:25:16;4.30;99.90
25320;DHT22;13256;49.012;8.610;2022-12-07T09:27:54;4.30;99.90
25320;DHT22;13256;49.012;8.610;2022-12-07T09:30:23;4.30;99.90
25320;DHT22;13256;49.012;8.610;2022-12-07T09:32:49;4.30;99.90
25320;DHT22;13256;49.012;8.610;2022-12-07T09:35:20;4.30;99.90
25320;DHT22;13256;49.012;8.610;2022-12-07T09:37:49;4.30;99.90
25320;DHT22;13256;49.012;8.610;2022-12-07T09:40:21;4.30;99.90
25320;DHT22;13256;49.012;8.610;2022-12-07T09:42:53;4.30;99.90
25320;DHT22;13256;49.012;8.610;2022-12-07T09:45:24;4.30;99.90
25320;DHT22;13256;49.012;8.610;2022-12-07T09:47:52;4.30;99.90
25320;DHT22;13256;49.012;8.610;2022-12-07T09:50:24;4.30;99.90
25320;DHT22;13256;49.012;8.610;2022-12-07T09:53:04;4.40;99.90
25320;DHT22;13256;49.012;8.610;2022-12-07T09:55:36;4.40;99.90
25320;DHT22;13256;49.012;8.610;2022-12-07T09:58:05;4.50;99.90
25320;DHT22;13256;49.012;8.610;2022-12-07T10:00:36;4.50;99.90
25320;DHT22;13256;49.012;8.610;2022-12-07T10:03:08;4.60;99.90
25320;DHT22;13256;49.012;8.610;2022-12-07T10:05:48;4.60;99.90
25320;DHT22;13256;49.012;8.610;2022-12-07T10:08:22;4.60;99.90
25320;DHT22;13256;49.012;8.610;2022-12-07T10:10:52;4.60;99.90
25320;DHT22;13256;49.012;8.610;2022-12-07T10:13:53;4.60;99.90
25320;DHT22;13256;49.012;8.610;2022-12-07T10:18:50;4.60;99.90
25320;DHT22;13256;49.012;8.610;2022-12-07T10:21:25;4.60;99.90
25320;DHT22;13256;49.012;8.610;2022-12-07T10:26:35;4.60;99.90
25320;DHT22;13256;49.012;8.610;2022-12-07T10:34:45;4.70;99.90
25320;DHT22;13256;49.012;8.610;2022-12-07T10:37:22;4.70;99.90
25320;DHT22;13256;49.012;8.610;2022-12-07T10:39:56;4.70;99.90
25320;DHT22;13256;49.012;8.610;2022-12-07T10:42:30;4.70;99.90
25320;DHT22;13256;49.012;8.610;2022-12-07T10:48:24;4.70;99.90
25320;DHT22;13256;49.012;8.610;2022-12-07T10:59:42;4.70;99.90
25320;DHT22;13256;49.012;8.610;2022-12-07T11:02:42;4.70;99.90
25320;DHT22;13256;49.012;8.610;2022-12-07T11:14:15;4.80;99.90
25320;DHT22;13256;49.012;8.610;2022-12-07T11:19:24;4.70;99.90
25320;DHT22;13256;49.012;8.610;2022-12-07T11:22:20;4.70;99.90
25320;DHT22;13256;49.012;8.610;2022-12-07T11:25:23;4.70;99.90
25320;DHT22;13256;49.012;8.610;2022-12-07T11:33:30;4.70;99.90
25320;DHT22;13256;49.012;8.610;2022-12-07T11:38:52;4.70;99.90
25320;DHT22;13256;49.012;8.610;2022-12-07T11:41:45;4.70;99.90
25320;DHT22;13256;49.012;8.610;2022-12-07T11:44:49;4.70;99.90
25320;DHT22;13256;49.012;8.610;2022-12-07T11:47:27;4.70;99.90
25320;DHT22;13256;49.012;8.610;2022-12-07T11:50:29;4.70;99.90
25320;DHT22;13256;49.012;8.610;2022-12-07T11:53:14;4.70;99.90
25320;DHT22;13256;49.012;8.610;2022-12-07T11:55:57;4.70;99.90
25320;DHT22;13256;49.012;8.610;2022-12-07T12:06:38;4.80;99.90
25320;DHT22;13256;49.012;8.610;2022-12-07T12:09:33;4.80;99.90
25320;DHT22;13256;49.012;8.610;2022-12-07T12:12:45;4.90;99.90
25320;DHT22;13256;49.012;8.610;2022-12-07T12:18:53;5.00;99.90
25320;DHT22;13256;49.012;8.610;2022-12-07T12:21:28;5.00;99.90
25320;DHT22;13256;49.012;8.610;2022-12-07T12:24:14;5.10;99.90
25320;DHT22;13256;49.012;8.610;2022-12-07T12:26:51;5.20;99.90
25320;DHT22;13256;49.012;8.610;2022-12-07T12:29:50;5.30;99.90
25320;DHT22;13256;49.012;8.610;2022-12-07T12:32:21;5.40;99.90
25320;DHT22;13256;49.012;8.610;2022-12-07T12:37:41;5.50;99.90
25320;DHT22;13256;49.012;8.610;2022-12-07T12:42:54;5.50;99.90
25320;DHT22;13256;49.012;8.610;2022-12-07T12:45:29;5.50;99.90
25320;DHT22;13256;49.012;8.610;2022-12-07T12:48:36;5.40;99.90
25320;DHT22;13256;49.012;8.610;2022-12-07T12:54:33;5.40;99.90
25320;DHT22;13256;49.012;8.610;2022-12-07T12:57:37;5.40;99.90
25320;DHT22;13256;49.012;8.610;2022-12-07T13:00:23;5.40;99.90
25320;DHT22;13256;49.012;8.610;2022-12-07T13:02:56;5.40;99.90
25320;DHT22;13256;49.012;8.610;2022-12-07T13:05:30;5.40;99.90
25320;DHT22;13256;49.012;8.610;2022-12-07T13:08:20;5.40;99.90
25320;DHT22;13256;49.012;8.610;2022-12-07T13:11:39;5.40;99.90
25320;DHT22;13256;49.012;8.610;2022-12-07T13:26:19;5.40;99.90
25320;DHT22;13256;49.012;8.610;2022-12-07T13:29:18;5.40;99.90
25320;DHT22;13256;49.012;8.610;2022-12-07T13:31:55;5.30;99.90
25320;DHT22;13256;49.012;8.610;2022-12-07T13:34:38;5.30;99.90
25320;DHT22;13256;49.012;8.610;2022-12-07T13:37:14;5.40;99.90
25320;DHT22;13256;49.012;8.610;2022-12-07T13:39:49;5.30;99.90
25320;DHT22;13256;49.012;8.610;2022-12-07T13:42:35;5.30;99.90
25320;DHT22;13256;49.012;8.610;2022-12-07T13:45:24;5.30;99.90
25320;DHT22;13256;49.012;8.610;2022-12-07T13:48:46;5.20;99.90
25320;DHT22;13256;49.012;8.610;2022-12-07T13:51:20;5.20;99.90
25320;DHT22;13256;49.012;8.610;2022-12-07T13:54:10;5.20;99.90
25320;DHT22;13256;49.012;8.610;2022-12-07T13:56:42;5.20;99.90
25320;DHT22;13256;49.012;8.610;2022-12-07T13:59:23;5.20;99.90
25320;DHT22;13256;49.012;8.610;2022-12-07T14:01:52;5.10;99.90
25320;DHT22;13256;49.012;8.610;2022-12-07T14:04:38;5.10;99.90
25320;DHT22;13256;49.012;8.610;2022-12-07T14:07:23;5.10;99.90
25320;DHT22;13256;49.012;8.610;2022-12-07T14:09:59;5.00;99.90
25320;DHT22;13256;49.012;8.610;2022-12-07T14:12:28;5.00;99.90
25320;DHT22;13256;49.012;8.610;2022-12-07T14:15:00;5.00;99.90
25320;DHT22;13256;49.012;8.610;2022-12-07T14:17:33;4.90;99.90
25320;DHT22;13256;49.012;8.610;2022-12-07T14:20:02;4.90;99.90
25320;DHT22;13256;49.012;8.610;2022-12-07T14:22:35;4.90;99.90
25320;DHT22;13256;49.012;8.610;2022-12-07T14:30:25;4.90;99.90
25320;DHT22;13256;49.012;8.610;2022-12-07T14:33:04;4.90;99.90
25320;DHT22;13256;49.012;8.610;2022-12-07T14:35:37;4.80;99.90
25320;DHT22;13256;49.012;8.610;2022-12-07T14:38:07;4.80;99.90
25320;DHT22;13256;49.012;8.610;2022-12-07T14:40:34;4.80;99.90
25320;DHT22;13256;49.012;8.610;2022-12-07T14:45:54;4.80;99.90
25320;DHT22;13256;49.012;8.610;2022-12-07T14:48:23;4.80;99.90
25320;DHT22;13256;49.012;8.610;2022-12-07T14:51:29;4.80;99.90
25320;DHT22;13256;49.012;8.610;2022-12-07T14:54:17;4.70;99.90
25320;DHT22;13256;49.012;8.610;2022-12-07T14:56:49;4.70;99.90
25320;DHT22;13256;49.012;8.610;2022-12-07T14:59:20;4.70;99.90
25320;DHT22;13256;49.012;8.610;2022-12-07T15:04:30;4.80;99.90
25320;DHT22;13256;49.012;8.610;2022-12-07T15:07:04;4.80;99.90
25320;DHT22;13256;49.012;8.610;2022-12-07T15:09:35;4.80;99.90
25320;DHT22;13256;49.012;8.610;2022-12-07T15:12:05;4.80;99.90
25320;DHT22;13256;49.012;8.610;2022-12-07T15:14:32;4.80;99.90
25320;DHT22;13256;49.012;8.610;2022-12-07T15:17:18;4.80;99.90
25320;DHT22;13256;49.012;8.610;2022-12-07T15:19:58;4.70;99.90
25320;DHT22;13256;49.012;8.610;2022-12-07T15:22:27;4.70;99.90
25320;DHT22;13256;49.012;8.610;2022-12-07T15:25:04;4.80;99.90
25320;DHT22;13256;49.012;8.610;2022-12-07T15:27:32;4.70;99.90
25320;DHT22;13256;49.012;8.610;2022-12-07T15:30:05;4.80;99.90
25320;DHT22;13256;49.012;8.610;2022-12-07T15:32:33;4.80;99.90
25320;DHT22;13256;49.012;8.610;2022-12-07T15:35:04;4.70;99.90
25320;DHT22;13256;49.012;8.610;2022-12-07T15:37:32;4.70;99.90
25320;DHT22;13256;49.012;8.610;2022-12-07T15:40:00;4.70;99.90
25320;DHT22;13256;49.012;8.610;2022-12-07T15:42:36;4.70;99.90
25320;DHT22;13256;49.012;8.610;2022-12-07T15:45:05;4.70;99.90
25320;DHT22;13256;49.012;8.610;2022-12-07T15:47:37;4.70;99.90
25320;DHT22;13256;49.012;8.610;2022-12-07T15:50:49;4.70;99.90
25320;DHT22;13256;49.012;8.610;2022-12-07T15:53:38;4.60;99.90
25320;DHT22;13256;49.012;8.610;2022-12-07T15:56:07;4.50;99.90
25320;DHT22;13256;49.012;8.610;2022-12-07T15:58:34;4.50;99.90
25320;DHT22;13256;49.012;8.610;2022-12-07T16:01:13;4.40;99.90
25320;DHT22;13256;49.012;8.610;2022-12-07T16:03:42;4.40;99.90
25320;DHT22;13256;49.012;8.610;2022-12-07T16:06:09;4.40;99.90
25320;DHT22;13256;49.012;8.610;2022-12-07T16:08:36;4.30;99.90
25320;DHT22;13256;49.012;8.610;2022-12-07T16:11:06;4.30;99.90
25320;DHT22;13256;49.012;8.610;2022-12-07T16:13:34;4.30;99.90
25320;DHT22;13256;49.012;8.610;2022-12-07T16:16:10;4.30;99.90
25320;DHT22;13256;49.012;8.610;2022-12-07T16:18:46;4.20;99.90
25320;DHT22;13256;49.012;8.610;2022-12-07T16:21:13;4.20;99.90
25320;DHT22;13256;49.012;8.610;2022-12-07T16:23:44;4.20;99.90
25320;DHT22;13256;49.012;8.610;2022-12-07T16:26:14;4.20;99.90
25320;DHT22;13256;49.012;8.610;2022-12-07T16:28:42;4.10;99.90
25320;DHT22;13256;49.012;8.610;2022-12-07T16:31:15;4.10;99.90
25320;DHT22;13256;49.012;8.610;2022-12-07T16:33:43;4.10;99.90
25320;DHT22;13256;49.012;8.610;2022-12-07T16:36:12;4.10;99.90
25320;DHT22;13256;49.012;8.610;2022-12-07T16:38:42;4.10;99.90
25320;DHT22;13256;49.012;8.610;2022-12-07T16:41:17;4.10;99.90
25320;DHT22;13256;49.012;8.610;2022-12-07T16:43:44;4.10;99.90
25320;DHT22;13256;49.012;8.610;2022-12-07T16:46:34;4.10;99.90
25320;DHT22;13256;49.012;8.610;2022-12-07T16:49:05;4.10;99.90
25320;DHT22;13256;49.012;8.610;2022-12-07T16:51:32;4.10;99.90
25320;DHT22;13256;49.012;8.610;2022-12-07T16:54:03;4.00;99.90
25320;DHT22;13256;49.012;8.610;2022-12-07T16:56:31;4.00;99.90
25320;DHT22;13256;49.012;8.610;2022-12-07T16:59:01;4.00;99.90
25320;DHT22;13256;49.012;8.610;2022-12-07T17:01:31;4.00;99.90
25320;DHT22;13256;49.012;8.610;2022-12-07T17:04:02;4.00;99.90
25320;DHT22;13256;49.012;8.610;2022-12-07T17:06:31;4.00;99.90
25320;DHT22;13256;49.012;8.610;2022-12-07T17:08:59;4.00;99.90
25320;DHT22;13256;49.012;8.610;2022-12-07T17:11:30;4.00;99.90
25320;DHT22;13256;49.012;8.610;2022-12-07T17:14:01;4.00;99.90
25320;DHT22;13256;49.012;8.610;2022-12-07T17:16:49;4.00;99.90
25320;DHT22;13256;49.012;8.610;2022-12-07T17:19:18;4.00;99.90
25320;DHT22;13256;49.012;8.610;2022-12-07T17:21:50;4.10;99.90
25320;DHT22;13256;49.012;8.610;2022-12-07T17:24:17;4.10;99.90
25320;DHT22;13256;49.012;8.610;2022-12-07T17:26:45;4.10;99.90
25320;DHT22;13256;49.012;8.610;2022-12-07T17:29:16;4.10;99.90
25320;DHT22;13256;49.012;8.610;2022-12-07T17:31:47;4.10;99.90
25320;DHT22;13256;49.012;8.610;2022-12-07T17:34:18;4.10;99.90
25320;DHT22;13256;49.012;8.610;2022-12-07T17:36:46;4.10;99.90
25320;DHT22;13256;49.012;8.610;2022-12-07T17:39:18;4.10;99.90
25320;DHT22;13256;49.012;8.610;2022-12-07T17:41:48;4.10;99.90
25320;DHT22;13256;49.012;8.610;2022-12-07T17:44:34;4.10;99.90
25320;DHT22;13256;49.012;8.610;2022-12-07T17:47:00;4.10;99.90
25320;DHT22;13256;49.012;8.610;2022-12-07T17:49:29;4.10;99.90
25320;DHT22;13256;49.012;8.610;2022-12-07T17:51:57;4.10;99.90
25320;DHT22;13256;49.012;8.610;2022-12-07T17:54:43;4.10;99.90
25320;DHT22;13256;49.012;8.610;2022-12-07T17:57:15;4.10;99.90
25320;DHT22;13256;49.012;8.610;2022-12-07T17:59:44;4.10;99.90
25320;DHT22;13256;49.012;8.610;2022-12-07T18:02:14;4.10;99.90
25320;DHT22;13256;49.012;8.610;2022-12-07T18:04:41;4.10;99.90
25320;DHT22;13256;49.012;8.610;2022-12-07T18:07:13;4.10;99.90
25320;DHT22;13256;49.012;8.610;2022-12-07T18:09:39;4.20;99.90
25320;DHT22;13256;49.012;8.610;2022-12-07T18:12:07;4.20;99.90
25320;DHT22;13256;49.012;8.610;2022-12-07T18:14:35;4.20;99.90
25320;DHT22;13256;49.012;8.610;2022-12-07T18:17:01;4.10;99.90
25320;DHT22;13256;49.012;8.610;2022-12-07T18:19:28;4.10;99.90
25320;DHT22;13256;49.012;8.610;2022-12-07T18:21:55;4.10;99.90
25320;DHT22;13256;49.012;8.610;2022-12-07T18:24:25;4.10;99.90